Aviation Digital Data Service (ADDS)

Output produced by METARs form (1711 UTC 07 February 2016)
found at http://www.aviationweather.gov/adds/metars/
 
KPIA 071350Z 0714/0812 21010KT P6SM BKN120 
     FM071500 22013G22KT P6SM BKN120 
     FM071700 27012G20KT P6SM BKN120 
     FM080000 27007KT P6SM SCT020 OVC035 
     FM080700 28010KT 3SM -SN BR OVC020